createdAt,value
2022-11-29T00:00:36.910Z,5.40
2022-11-29T00:05:39.264Z,4.73
2022-11-29T00:10:41.553Z,4.73
2022-11-29T00:15:44.275Z,4.60
2022-11-29T00:20:46.458Z,4.83
2022-11-29T00:25:48.777Z,5.97
2022-11-29T00:30:51.288Z,4.97
2022-11-29T00:35:53.517Z,5.43
2022-11-29T00:40:55.759Z,4.20
2022-11-29T00:45:58.036Z,5.47
2022-11-29T00:51:00.451Z,5.33
2022-11-29T00:56:03.348Z,5.23
2022-11-29T01:01:05.993Z,5.90
2022-11-29T01:06:11.425Z,5.50
2022-11-29T01:11:17.297Z,5.57
2022-11-29T01:16:19.750Z,4.90
2022-11-29T01:21:24.294Z,5.43
2022-11-29T01:26:28.313Z,5.47
2022-11-29T01:31:37.825Z,4.67
2022-11-29T01:36:40.093Z,5.53
2022-11-29T01:41:42.372Z,4.60
2022-11-29T01:46:46.507Z,4.97
2022-11-29T01:51:52.478Z,4.40
2022-11-29T01:56:54.858Z,3.70
2022-11-29T02:02:01.038Z,4.37
2022-11-29T02:07:03.627Z,5.57
2022-11-29T02:12:24.041Z,5.07
2022-11-29T02:17:45.254Z,5.13
2022-11-29T02:23:03.245Z,4.83
2022-11-29T02:28:23.993Z,4.83
2022-11-29T02:33:39.222Z,4.77
2022-11-29T02:38:59.996Z,4.90
2022-11-29T02:44:29.105Z,4.73
2022-11-29T02:49:40.133Z,4.43
2022-11-29T02:54:52.837Z,4.63
2022-11-29T03:00:08.631Z,5.33
2022-11-29T03:05:29.020Z,6.70
2022-11-29T03:10:39.433Z,6.13
2022-11-29T03:15:46.370Z,4.80
2022-11-29T03:21:16.766Z,7.20
2022-11-29T03:26:30.279Z,6.67
2022-11-29T03:31:34.472Z,5.77
2022-11-29T03:37:01.693Z,6.07
2022-11-29T03:42:08.390Z,6.40
2022-11-29T03:47:15.141Z,7.93
2022-11-29T03:52:36.100Z,6.47
2022-11-29T03:58:04.131Z,6.37
2022-11-29T04:03:24.349Z,7.10
2022-11-29T04:08:35.682Z,7.10
2022-11-29T04:13:56.492Z,7.13
2022-11-29T04:19:23.775Z,6.90
2022-11-29T04:24:50.538Z,6.97
2022-11-29T04:30:07.356Z,8.63
2022-11-29T04:35:34.702Z,6.80
2022-11-29T04:41:10.961Z,7.63
2022-11-29T04:46:13.122Z,6.83
2022-11-29T04:51:47.567Z,7.27
2022-11-29T04:56:53.357Z,7.83
2022-11-29T05:02:23.557Z,7.23
2022-11-29T05:18:28.901Z,6.50
2022-11-29T05:24:02.460Z,6.37
2022-11-29T05:29:16.934Z,5.90
2022-11-29T05:34:38.244Z,5.37
2022-11-29T05:39:46.521Z,5.83
2022-11-29T05:44:50.823Z,10.33
2022-11-29T05:49:57.810Z,6.70
2022-11-29T05:55:15.389Z,6.00
2022-11-29T06:00:19.143Z,7.43
2022-11-29T06:05:56.910Z,7.20
2022-11-29T06:11:13.237Z,6.00
2022-11-29T06:16:41.643Z,6.83
2022-11-29T06:22:07.339Z,7.13
2022-11-29T06:27:31.949Z,6.50
2022-11-29T06:32:57.280Z,7.63
2022-11-29T06:38:14.382Z,6.53
2022-11-29T06:43:17.429Z,7.43
2022-11-29T06:48:26.689Z,7.57
2022-11-29T06:53:47.335Z,6.00
2022-11-29T06:59:04.397Z,7.10
2022-11-29T07:04:29.682Z,7.07
2022-11-29T07:09:34.869Z,6.70
2022-11-29T07:14:37.332Z,8.03
2022-11-29T07:20:01.308Z,7.60
2022-11-29T07:25:17.709Z,6.30
2022-11-29T07:30:23.193Z,7.90
2022-11-29T07:35:44.555Z,7.87
2022-11-29T07:41:11.333Z,8.57
2022-11-29T07:46:13.700Z,8.73
2022-11-29T07:51:16.022Z,8.67
2022-11-29T07:56:18.236Z,9.63
2022-11-29T08:01:20.487Z,10.97
2022-11-29T08:06:26.790Z,9.67
2022-11-29T08:11:28.982Z,8.23
2022-11-29T08:16:31.651Z,9.93
2022-11-29T08:21:33.867Z,10.73
2022-11-29T08:26:36.064Z,8.63
2022-11-29T08:31:38.409Z,9.93
2022-11-29T08:36:40.694Z,8.90
2022-11-29T08:41:43.246Z,8.37
2022-11-29T08:47:09.744Z,9.07
2022-11-29T08:52:31.510Z,10.63
2022-11-29T08:57:42.063Z,9.53
2022-11-29T09:02:44.681Z,9.17
2022-11-29T09:07:47.220Z,10.67
2022-11-29T09:12:50.814Z,10.13
2022-11-29T09:17:53.004Z,10.77
2022-11-29T09:22:55.299Z,10.83
2022-11-29T09:28:03.081Z,9.40
2022-11-29T09:33:05.590Z,9.73
2022-11-29T09:38:07.808Z,10.87
2022-11-29T09:43:17.143Z,11.30
2022-11-29T09:48:32.913Z,10.02
2022-11-29T09:53:47.308Z,9.63
2022-11-29T09:59:00.915Z,10.37
2022-11-29T10:04:05.917Z,11.00
2022-11-29T10:09:23.270Z,10.73
2022-11-29T10:14:31.515Z,11.10
2022-11-29T10:20:12.192Z,10.57
2022-11-29T10:25:23.073Z,10.70
2022-11-29T10:30:25.359Z,11.07
2022-11-29T10:35:27.687Z,11.37
2022-11-29T10:40:35.316Z,11.63
2022-11-29T10:45:43.929Z,10.40
2022-11-29T10:50:48.987Z,10.57
2022-11-29T10:56:13.180Z,10.53
2022-11-29T11:01:17.415Z,11.10
2022-11-29T11:06:21.677Z,11.07
2022-11-29T11:11:29.843Z,10.80
2022-11-29T11:16:37.594Z,12.20
2022-11-29T11:21:40.083Z,12.43
2022-11-29T11:26:44.702Z,10.57
2022-11-29T11:31:58.420Z,10.33
2022-11-29T11:37:16.057Z,11.13
2022-11-29T11:42:43.241Z,11.40
2022-11-29T11:47:54.324Z,10.27
2022-11-29T11:52:59.622Z,10.33
2022-11-29T11:58:09.763Z,9.43
2022-11-29T12:03:33.520Z,9.50
2022-11-29T12:08:36.830Z,8.40
2022-11-29T12:13:42.087Z,8.47
2022-11-29T12:18:50.717Z,9.30
2022-11-29T12:24:20.662Z,9.47
2022-11-29T12:29:23.574Z,10.88
2022-11-29T12:34:48.158Z,11.53
2022-11-29T12:40:16.885Z,8.30
2022-11-29T12:45:34.512Z,10.90
2022-11-29T12:51:05.302Z,9.17
2022-11-29T12:56:23.853Z,8.30
2022-11-29T13:01:58.997Z,8.73
2022-11-29T13:07:15.277Z,9.27
2022-11-29T13:12:42.582Z,9.17
2022-11-29T13:18:03.463Z,8.73
2022-11-29T13:23:45.939Z,9.07
2022-11-29T13:28:48.747Z,9.33
2022-11-29T13:34:22.629Z,10.73
2022-11-29T13:39:49.816Z,11.10
2022-11-29T13:45:03.650Z,10.83
2022-11-29T13:50:41.636Z,10.67
2022-11-29T13:55:46.919Z,12.10
2022-11-29T14:00:50.837Z,10.47
2022-11-29T14:06:03.379Z,9.97
2022-11-29T14:11:14.975Z,10.10
2022-11-29T14:16:21.758Z,10.43
2022-11-29T14:21:24.048Z,9.53
2022-11-29T14:26:28.889Z,9.47
2022-11-29T14:31:50.936Z,10.13
2022-11-29T14:37:20.014Z,11.10
2022-11-29T14:42:29.919Z,10.83
2022-11-29T14:47:38.465Z,11.30
2022-11-29T14:52:54.041Z,11.37
2022-11-29T14:58:03.933Z,11.03
2022-11-29T15:03:29.329Z,10.57
2022-11-29T15:08:42.431Z,10.20
2022-11-29T15:14:12.943Z,11.03
2022-11-29T15:19:33.881Z,10.53
2022-11-29T15:24:57.921Z,8.97
2022-11-29T15:30:18.604Z,10.10
2022-11-29T15:35:21.127Z,9.30
2022-11-29T15:40:34.779Z,10.07
2022-11-29T15:45:38.870Z,9.30
2022-11-29T15:50:46.020Z,8.63
2022-11-29T15:55:50.400Z,10.17
2022-11-29T16:00:53.280Z,8.60
2022-11-29T16:06:21.666Z,9.90
2022-11-29T16:11:25.771Z,8.30
2022-11-29T16:16:28.971Z,8.90
2022-11-29T16:21:32.728Z,9.43
2022-11-29T16:26:38.623Z,9.03
2022-11-29T16:31:40.843Z,13.00
2022-11-29T16:36:43.134Z,10.43
2022-11-29T16:42:05.818Z,10.60
2022-11-29T16:47:28.731Z,13.43
2022-11-29T16:52:33.818Z,9.20
2022-11-29T16:57:36.503Z,8.40
2022-11-29T17:02:38.878Z,7.57
2022-11-29T17:07:41.579Z,8.23
2022-11-29T17:12:47.974Z,7.90
2022-11-29T17:17:50.895Z,6.97
2022-11-29T17:23:00.032Z,7.80
2022-11-29T17:28:03.370Z,8.10
2022-11-29T17:33:05.821Z,7.33
2022-11-29T17:38:08.315Z,8.17
2022-11-29T17:43:13.934Z,7.97
2022-11-29T17:48:18.918Z,8.80
2022-11-29T17:53:22.522Z,7.27
2022-11-29T17:58:25.859Z,6.90
2022-11-29T18:03:28.215Z,7.47
2022-11-29T18:08:30.531Z,6.70
2022-11-29T18:13:32.926Z,7.00
2022-11-29T18:18:37.606Z,8.20
2022-11-29T18:23:43.630Z,8.43
2022-11-29T18:28:46.708Z,7.77
2022-11-29T18:33:52.593Z,8.13
2022-11-29T18:39:23.322Z,6.23
2022-11-29T18:44:36.962Z,7.30
2022-11-29T18:49:42.181Z,8.53
2022-11-29T18:54:50.691Z,8.63
2022-11-29T18:59:53.435Z,7.35
2022-11-29T19:04:56.259Z,7.60
2022-11-29T19:09:59.172Z,8.60
2022-11-29T19:15:10.519Z,8.47
2022-11-29T19:20:13.879Z,7.70
2022-11-29T19:25:16.172Z,7.57
2022-11-29T19:30:18.562Z,8.10
2022-11-29T19:35:20.747Z,8.83
2022-11-29T19:40:22.975Z,7.80
2022-11-29T19:45:25.411Z,7.50
2022-11-29T19:50:28.755Z,7.63
2022-11-29T19:55:30.937Z,9.57
2022-11-29T20:00:33.152Z,8.43
2022-11-29T20:05:35.302Z,7.97
2022-11-29T20:10:37.425Z,6.30
2022-11-29T20:15:39.631Z,7.40
2022-11-29T20:20:41.973Z,6.43
2022-11-29T20:25:49.462Z,7.97
2022-11-29T20:30:52.675Z,6.97
2022-11-29T20:36:04.211Z,7.03
2022-11-29T20:41:15.960Z,7.30
2022-11-29T20:46:18.409Z,7.33
2022-11-29T20:51:29.237Z,7.03
2022-11-29T20:56:33.096Z,7.63
2022-11-29T21:01:35.349Z,7.57
2022-11-29T21:06:38.654Z,7.87
2022-11-29T21:11:41.138Z,10.00
2022-11-29T21:16:43.528Z,6.60
2022-11-29T21:22:02.357Z,7.73
2022-11-29T21:27:04.954Z,8.25
2022-11-29T21:32:07.518Z,8.10
2022-11-29T21:37:09.624Z,9.67
2022-11-29T21:42:12.521Z,8.13
2022-11-29T21:47:14.972Z,8.33
2022-11-29T21:52:22.245Z,8.60
2022-11-29T21:57:25.015Z,10.60
2022-11-29T22:02:27.608Z,10.63
2022-11-29T22:07:29.995Z,7.70
2022-11-29T22:12:34.821Z,7.77
2022-11-29T22:17:37.392Z,8.90
2022-11-29T22:22:39.673Z,8.90
2022-11-29T22:27:41.844Z,6.97
2022-11-29T22:32:44.044Z,8.40
2022-11-29T22:37:46.232Z,7.90
2022-11-29T22:42:48.372Z,7.93
2022-11-29T22:47:50.581Z,8.73
2022-11-29T22:52:53.964Z,7.20
2022-11-29T22:57:56.207Z,7.17
2022-11-29T23:02:58.367Z,7.67
2022-11-29T23:08:00.857Z,8.90
2022-11-29T23:13:03.259Z,8.43
2022-11-29T23:18:05.422Z,11.77
2022-11-29T23:23:07.703Z,9.73
2022-11-29T23:28:10.020Z,10.87
2022-11-29T23:33:12.272Z,8.57
2022-11-29T23:38:15.373Z,9.50
2022-11-29T23:43:17.510Z,10.37
2022-11-29T23:48:19.742Z,11.13
2022-11-29T23:53:21.989Z,9.00
2022-11-29T23:58:24.291Z,9.53
